Time;durP1;ratioP1;P1;durP2;ratioP2;P2;SDS_P1;SDS_P2;PMS_P1;PMS_P2;Temp;Humidity;BMP_temperature;BMP_pressure;BME280_temperature;BME280_humidity;BME280_pressure;Samples;Min_cycle;Max_cycle;Signal;HPM_P1;HPM_P2
2022/05/04 00:00:35;;;;;;;11.55;2.00;;;7.90;99.90;;;;;;5069105;28;20048;-72
2022/05/04 00:03:01;;;;;;;8.57;2.55;;;7.90;99.90;;;;;;5069604;28;20399;-73
2022/05/04 00:05:27;;;;;;;10.43;2.35;;;7.90;99.90;;;;;;5069542;28;20067;-72
2022/05/04 00:07:53;;;;;;;11.15;2.40;;;8.40;99.90;;;;;;5070294;28;20055;-72
2022/05/04 00:10:19;;;;;;;9.75;2.03;;;8.20;99.90;;;;;;5070813;28;20131;-72
2022/05/04 00:12:44;;;;;;;13.82;2.10;;;7.80;99.90;;;;;;5069294;28;20059;-72
2022/05/04 00:15:10;;;;;;;9.13;2.03;;;7.80;99.90;;;;;;5070698;28;20119;-72
2022/05/04 00:17:36;;;;;;;10.57;1.90;;;7.90;99.90;;;;;;5070221;28;20047;-72
2022/05/04 00:20:02;;;;;;;11.48;2.00;;;7.80;99.90;;;;;;5069570;28;20476;-72
2022/05/04 00:22:28;;;;;;;8.68;2.17;;;7.90;99.90;;;;;;5070917;28;20059;-72
2022/05/04 00:24:54;;;;;;;12.82;1.95;;;7.90;99.90;;;;;;5070669;28;20052;-72
2022/05/04 00:27:20;;;;;;;10.30;2.30;;;7.90;99.90;;;;;;5068789;28;20048;-72
2022/05/04 00:29:46;;;;;;;9.82;2.63;;;7.80;99.90;;;;;;5070584;28;20049;-72
2022/05/04 00:32:14;;;;;;;8.52;1.98;;;7.80;99.90;;;;;;5070186;28;20041;-72
2022/05/04 00:34:40;;;;;;;10.52;2.30;;;7.80;99.90;;;;;;5068733;28;20044;-72
2022/05/04 00:37:06;;;;;;;7.55;2.00;;;7.80;99.90;;;;;;5070325;28;20106;-72
2022/05/04 00:39:33;;;;;;;10.55;2.38;;;7.80;99.90;;;;;;5070483;28;20052;-71
2022/05/04 00:42:15;;;;;;;7.85;2.13;;;7.80;99.90;;;;;;5069231;28;20498;-72
2022/05/04 00:44:44;;;;;;;9.63;2.05;;;7.80;99.90;;;;;;5070178;28;20123;-72
2022/05/04 00:47:10;;;;;;;7.95;2.15;;;7.80;99.90;;;;;;5069915;28;20144;-72
2022/05/04 00:49:36;;;;;;;10.07;2.10;;;7.80;99.90;;;;;;5069193;28;20131;-72
2022/05/04 00:52:03;;;;;;;12.45;2.45;;;7.90;99.90;;;;;;5069991;28;20039;-72
2022/05/04 00:54:30;;;;;;;9.48;2.78;;;7.80;99.90;;;;;;5070176;28;20154;-72
2022/05/04 00:56:56;;;;;;;10.38;2.50;;;7.80;99.90;;;;;;5070103;28;20192;-72
2022/05/04 00:59:22;;;;;;;7.95;1.80;;;7.80;99.90;;;;;;5068987;28;20562;-72
2022/05/04 01:01:48;;;;;;;8.93;2.33;;;7.70;99.90;;;;;;5068308;28;20044;-72
2022/05/04 01:04:14;;;;;;;10.65;2.25;;;8.10;99.90;;;;;;5068980;28;20059;-72
2022/05/04 01:06:40;;;;;;;5.28;1.42;;;7.90;99.90;;;;;;5070074;28;20048;-71
2022/05/04 01:09:06;;;;;;;11.70;2.38;;;7.80;99.90;;;;;;5068561;28;20080;-72
2022/05/04 01:11:32;;;;;;;10.60;2.05;;;7.70;99.90;;;;;;5068623;28;20095;-72
2022/05/04 01:14:03;;;;;;;13.82;2.00;;;7.70;99.90;;;;;;5069927;28;20178;-72
2022/05/04 01:16:30;;;;;;;9.48;2.03;;;7.80;99.90;;;;;;5068796;28;20057;-71
2022/05/04 01:18:56;;;;;;;7.75;1.50;;;7.70;99.90;;;;;;5070550;28;20124;-72
2022/05/04 01:21:22;;;;;;;12.10;2.03;;;7.60;99.90;;;;;;5070269;28;20052;-72
2022/05/04 01:23:48;;;;;;;9.68;1.95;;;7.70;99.90;;;;;;5067954;28;20048;-70
2022/05/04 01:26:17;;;;;;;5.65;1.60;;;7.70;99.90;;;;;;5069091;28;20051;-71
2022/05/04 01:28:47;;;;;;;8.00;1.65;;;7.70;99.90;;;;;;5068689;28;20052;-72
2022/05/04 01:31:12;;;;;;;9.73;2.00;;;7.70;99.90;;;;;;5052210;28;20052;-72
2022/05/04 01:33:39;;;;;;;8.77;1.90;;;7.70;99.90;;;;;;5068092;28;20391;-72
2022/05/04 01:36:06;;;;;;;10.82;1.95;;;7.70;99.90;;;;;;5069922;28;20041;-72
2022/05/04 01:38:32;;;;;;;10.93;2.13;;;8.10;99.90;;;;;;5069771;28;20137;-72
2022/05/04 01:40:58;;;;;;;7.30;1.80;;;7.70;99.90;;;;;;5069413;28;20117;-72
2022/05/04 01:43:24;;;;;;;11.35;2.58;;;7.70;99.90;;;;;;5051358;28;20091;-72
2022/05/04 01:45:49;;;;;;;11.07;1.70;;;7.70;99.90;;;;;;5069737;28;20052;-72
2022/05/04 01:48:15;;;;;;;5.15;1.45;;;7.70;99.90;;;;;;5069550;28;20057;-73
2022/05/04 01:50:41;;;;;;;8.07;1.63;;;7.70;99.90;;;;;;5068632;28;20044;-72
2022/05/04 01:53:06;;;;;;;14.10;2.80;;;7.70;99.90;;;;;;5069316;28;20054;-72
2022/05/04 01:55:33;;;;;;;9.43;1.80;;;7.60;99.90;;;;;;5069364;28;20045;-72
2022/05/04 01:58:00;;;;;;;10.80;2.10;;;7.60;99.90;;;;;;5069463;28;20056;-72
2022/05/04 02:00:26;;;;;;;11.18;2.47;;;7.60;99.90;;;;;;5068680;28;20135;-72
2022/05/04 02:02:54;;;;;;;12.50;1.75;;;7.60;99.90;;;;;;5065945;28;20131;-72
2022/05/04 02:05:21;;;;;;;15.82;2.42;;;7.60;99.90;;;;;;5072505;28;20048;-71
2022/05/04 02:07:48;;;;;;;13.80;1.90;;;7.60;99.90;;;;;;5073318;28;20048;-72
2022/05/04 02:10:14;;;;;;;12.32;2.17;;;7.60;99.90;;;;;;5071766;28;20140;-72
2022/05/04 02:12:40;;;;;;;12.02;2.60;;;7.60;99.90;;;;;;5072483;28;20121;-72
2022/05/04 02:15:06;;;;;;;11.05;2.35;;;7.60;99.90;;;;;;5065597;28;20040;-72
2022/05/04 02:17:33;;;;;;;7.70;2.35;;;7.60;99.90;;;;;;5072185;28;20052;-72
2022/05/04 02:19:58;;;;;;;14.02;2.33;;;7.60;99.90;;;;;;5071097;28;20158;-71
2022/05/04 02:22:24;;;;;;;11.95;2.20;;;7.60;99.90;;;;;;5070553;28;20083;-71
2022/05/04 02:24:50;;;;;;;15.73;2.72;;;7.60;99.90;;;;;;5060407;28;20472;-72
2022/05/04 02:27:15;;;;;;;11.43;2.30;;;7.60;99.90;;;;;;5065259;28;20044;-71
2022/05/04 02:29:41;;;;;;;9.57;2.00;;;7.60;99.90;;;;;;5068019;28;20050;-72
2022/05/04 02:32:07;;;;;;;8.77;2.00;;;7.60;99.90;;;;;;5056721;28;20068;-72
2022/05/04 02:34:33;;;;;;;10.73;2.22;;;7.60;99.90;;;;;;5051391;28;20484;-72
2022/05/04 02:40:00;;;;;;;7.50;2.13;;;7.70;99.90;;;;;;4990864;28;20101;-72
2022/05/04 02:42:25;;;;;;;8.82;2.20;;;7.50;99.90;;;;;;4986838;28;20129;-72
2022/05/04 02:44:51;;;;;;;8.73;2.22;;;7.50;99.90;;;;;;4993470;28;20129;-72
2022/05/04 02:47:17;;;;;;;8.73;2.15;;;7.60;99.90;;;;;;4993671;28;20065;-72
2022/05/04 02:49:42;;;;;;;15.50;2.38;;;7.60;99.90;;;;;;5009917;28;20057;-72
2022/05/04 02:52:08;;;;;;;9.73;2.08;;;7.60;99.90;;;;;;4993036;28;20046;-72
2022/05/04 02:54:34;;;;;;;9.48;2.33;;;7.60;99.90;;;;;;5026757;28;20058;-72
2022/05/04 02:56:59;;;;;;;8.13;2.15;;;8.00;99.90;;;;;;5009845;28;20077;-72
2022/05/04 02:59:25;;;;;;;12.30;2.33;;;7.60;99.90;;;;;;5010038;28;20077;-72
2022/05/04 03:04:35;;;;;;;9.97;1.93;;;7.90;99.90;;;;;;5009548;28;20484;-71
2022/05/04 03:07:01;;;;;;;12.05;2.17;;;7.50;99.90;;;;;;5009021;28;20058;-72
2022/05/04 03:09:26;;;;;;;11.93;2.70;;;7.50;99.90;;;;;;4993352;28;20050;-73
2022/05/04 03:11:55;;;;;;;9.80;2.13;;;7.80;99.90;;;;;;4975696;28;20440;-72
2022/05/04 03:14:23;;;;;;;12.60;2.53;;;7.50;99.90;;;;;;5039213;28;20074;-71
2022/05/04 03:16:49;;;;;;;13.15;2.28;;;7.50;99.90;;;;;;5051971;28;20055;-72
2022/05/04 03:19:15;;;;;;;9.48;2.38;;;7.50;99.90;;;;;;5061778;28;20079;-72
2022/05/04 03:21:41;;;;;;;8.18;2.50;;;7.50;99.90;;;;;;5071861;28;20068;-71
2022/05/04 03:24:07;;;;;;;15.45;2.58;;;7.50;99.90;;;;;;5069447;28;20044;-71
2022/05/04 03:26:33;;;;;;;8.80;1.98;;;7.50;99.90;;;;;;5065394;28;20105;-72
2022/05/04 03:28:58;;;;;;;10.10;2.65;;;7.50;99.90;;;;;;5071454;28;20051;-72
2022/05/04 03:31:24;;;;;;;9.73;2.67;;;7.50;99.90;;;;;;5071691;28;20052;-72
2022/05/04 03:33:50;;;;;;;10.88;2.35;;;7.50;99.90;;;;;;5071320;28;20036;-72
2022/05/04 03:36:16;;;;;;;15.23;3.20;;;7.50;99.90;;;;;;5069949;28;20052;-71
2022/05/04 03:38:42;;;;;;;14.35;2.35;;;7.50;99.90;;;;;;5069566;28;20048;-72
2022/05/04 03:41:07;;;;;;;12.82;2.28;;;7.60;99.90;;;;;;5070257;28;20123;-72
2022/05/04 03:43:33;;;;;;;12.30;2.25;;;7.60;99.90;;;;;;5070354;28;20124;-72
2022/05/04 03:46:19;;;;;;;9.90;2.20;;;7.50;99.90;;;;;;5052366;28;20492;-72
2022/05/04 03:48:46;;;;;;;12.02;2.50;;;7.50;99.90;;;;;;5058555;28;20406;-72
2022/05/04 03:51:14;;;;;;;11.85;2.30;;;7.50;99.90;;;;;;5053662;28;20044;-72
2022/05/04 03:53:40;;;;;;;13.13;2.42;;;7.50;99.90;;;;;;5051500;28;20112;-72
2022/05/04 03:56:07;;;;;;;7.57;2.35;;;7.50;99.90;;;;;;5051620;28;20107;-72
2022/05/04 03:58:33;;;;;;;12.65;3.00;;;7.50;99.90;;;;;;5051439;28;20080;-71
2022/05/04 04:00:59;;;;;;;12.02;2.78;;;7.50;99.90;;;;;;5067918;28;20048;-72
2022/05/04 04:03:25;;;;;;;9.40;2.22;;;7.50;99.90;;;;;;5069348;28;20048;-72
2022/05/04 04:05:51;;;;;;;12.57;2.40;;;7.90;99.90;;;;;;5070654;28;20499;-72
2022/05/04 04:08:16;;;;;;;10.85;2.28;;;7.50;99.90;;;;;;5070911;28;20131;-71
2022/05/04 04:10:42;;;;;;;10.45;2.30;;;7.50;99.90;;;;;;5070490;28;20048;-72
2022/05/04 04:13:08;;;;;;;8.40;2.42;;;7.70;99.90;;;;;;5070726;28;20051;-72
2022/05/04 04:15:34;;;;;;;14.80;2.63;;;7.40;99.90;;;;;;5070501;28;20047;-71
2022/05/04 04:17:59;;;;;;;10.57;2.30;;;7.40;99.90;;;;;;5070599;28;20140;-73
2022/05/04 04:23:10;;;;;;;12.80;2.97;;;7.50;99.90;;;;;;5070514;28;20044;-72
2022/05/04 04:25:36;;;;;;;10.82;2.60;;;7.70;99.90;;;;;;5070721;28;20177;-70
2022/05/04 04:28:01;;;;;;;14.43;2.15;;;7.40;99.90;;;;;;5068091;28;20040;-71
2022/05/04 04:30:27;;;;;;;7.30;2.13;;;7.50;99.90;;;;;;5069715;28;20140;-71
2022/05/04 04:32:53;;;;;;;12.68;2.47;;;7.50;99.90;;;;;;5070476;28;20094;-72
2022/05/04 04:35:18;;;;;;;8.98;2.33;;;7.40;99.90;;;;;;5070283;28;20989;-72
2022/05/04 04:37:44;;;;;;;11.50;2.20;;;7.50;99.90;;;;;;5070260;28;20110;-72
2022/05/04 04:40:10;;;;;;;7.95;2.25;;;7.50;99.90;;;;;;5070426;28;20507;-71
2022/05/04 04:42:35;;;;;;;10.02;2.05;;;7.50;99.90;;;;;;5070091;28;20747;-71
2022/05/04 04:45:01;;;;;;;18.85;3.45;;;7.50;99.90;;;;;;5068575;28;20045;-72
2022/05/04 04:47:27;;;;;;;11.18;2.60;;;7.50;99.90;;;;;;5070112;28;20060;-71
2022/05/04 04:49:59;;;;;;;7.70;2.28;;;7.40;99.90;;;;;;5070166;28;20044;-72
2022/05/04 04:52:24;;;;;;;11.07;2.17;;;7.50;99.90;;;;;;5069728;28;20178;-71
2022/05/04 04:54:51;;;;;;;7.60;1.80;;;7.50;99.90;;;;;;5070557;28;20072;-71
2022/05/04 04:57:17;;;;;;;11.00;2.20;;;7.50;99.90;;;;;;5070295;28;20051;-72
2022/05/04 04:59:43;;;;;;;8.88;2.03;;;7.50;99.90;;;;;;5070237;28;20507;-72
2022/05/04 05:02:10;;;;;;;12.57;2.17;;;7.60;99.90;;;;;;5070249;28;20151;-71
2022/05/04 05:04:35;;;;;;;11.63;2.00;;;7.70;99.90;;;;;;5070323;28;20048;-71
2022/05/04 05:07:01;;;;;;;11.32;2.00;;;7.60;99.90;;;;;;5067785;28;20037;-72
2022/05/04 05:09:26;;;;;;;10.27;1.98;;;7.60;99.90;;;;;;5070345;28;20040;-72
2022/05/04 05:11:52;;;;;;;13.27;2.10;;;7.70;99.90;;;;;;5068549;28;20519;-71
2022/05/04 05:17:02;;;;;;;11.05;2.20;;;7.70;99.90;;;;;;5048749;28;20064;-72
2022/05/04 05:19:28;;;;;;;10.15;1.90;;;7.70;99.90;;;;;;5058553;28;20399;-70
2022/05/04 05:21:54;;;;;;;10.90;1.85;;;7.70;99.90;;;;;;5067184;28;20127;-71
2022/05/04 05:24:19;;;;;;;13.93;2.20;;;7.80;99.90;;;;;;5069706;28;20056;-72
2022/05/04 05:26:45;;;;;;;13.32;2.65;;;7.80;99.90;;;;;;5069896;28;20052;-72
2022/05/04 05:29:10;;;;;;;9.95;2.08;;;7.80;99.90;;;;;;5068366;28;20392;-71
2022/05/04 05:31:37;;;;;;;6.75;1.95;;;7.80;99.90;;;;;;5069778;28;20384;-72
2022/05/04 05:34:02;;;;;;;7.43;2.20;;;7.80;99.90;;;;;;5068728;28;20048;-71
2022/05/04 05:36:28;;;;;;;10.52;2.33;;;8.00;99.90;;;;;;5070803;28;20398;-71
2022/05/04 05:38:53;;;;;;;9.57;1.67;;;7.80;99.90;;;;;;5072097;28;20041;-72
2022/05/04 05:41:20;;;;;;;11.05;2.85;;;7.90;99.90;;;;;;5072197;28;20040;-71
2022/05/04 05:43:46;;;;;;;8.50;2.00;;;8.00;99.90;;;;;;5073694;28;20123;-71
2022/05/04 05:46:11;;;;;;;9.60;1.98;;;7.90;99.90;;;;;;5043354;28;20278;-72
2022/05/04 05:48:37;;;;;;;10.55;2.05;;;7.90;99.90;;;;;;5057764;28;20048;-72
2022/05/04 05:51:06;;;;;;;6.68;1.88;;;8.00;99.90;;;;;;5073354;28;20455;-72
2022/05/04 05:53:32;;;;;;;11.13;2.20;;;8.00;99.90;;;;;;5073272;28;20392;-72
2022/05/04 05:55:58;;;;;;;8.23;2.10;;;8.00;99.90;;;;;;5072802;28;20126;-72
2022/05/04 05:58:24;;;;;;;6.22;1.40;;;8.00;99.90;;;;;;5073256;28;20229;-72
2022/05/04 06:00:51;;;;;;;11.25;2.10;;;8.00;99.90;;;;;;5072099;28;20170;-71
2022/05/04 06:03:17;;;;;;;9.98;1.90;;;8.20;99.90;;;;;;5071999;28;20044;-72
2022/05/04 06:05:43;;;;;;;9.63;1.92;;;8.10;99.90;;;;;;5073068;28;20040;-72
2022/05/04 06:08:09;;;;;;;6.90;1.88;;;8.10;99.90;;;;;;5070977;28;20154;-72
2022/05/04 06:10:38;;;;;;;12.55;1.70;;;8.20;99.90;;;;;;5073099;28;20571;-73
2022/05/04 06:13:05;;;;;;;8.57;2.05;;;8.20;99.90;;;;;;5053267;28;20525;-72
2022/05/04 06:15:30;;;;;;;7.57;2.00;;;8.20;99.90;;;;;;5071092;28;20044;-70
2022/05/04 06:17:56;;;;;;;9.88;1.95;;;8.20;99.90;;;;;;5071074;28;20052;-73
2022/05/04 06:20:23;;;;;;;13.25;1.60;;;8.30;99.90;;;;;;5071415;28;20045;-71
2022/05/04 06:22:49;;;;;;;7.97;1.58;;;8.40;99.90;;;;;;5071353;28;20111;-72
2022/05/04 06:25:15;;;;;;;5.63;1.35;;;8.40;99.90;;;;;;5073122;28;20054;-72
2022/05/04 06:27:40;;;;;;;6.32;1.65;;;8.50;99.90;;;;;;5072530;28;20041;-72
2022/05/04 06:35:35;;;;;;;9.25;1.88;;;8.60;99.90;;;;;;5072918;28;20055;-72
2022/05/04 06:38:01;;;;;;;8.32;1.85;;;8.60;99.90;;;;;;5069197;28;20136;-72
2022/05/04 06:40:26;;;;;;;7.75;2.10;;;8.60;99.90;;;;;;5051249;28;20103;-73
2022/05/04 06:42:52;;;;;;;7.75;1.95;;;8.70;99.90;;;;;;5052780;28;20045;-72
2022/05/04 06:45:17;;;;;;;11.15;2.38;;;8.60;99.90;;;;;;5064798;28;20402;-72
2022/05/04 06:47:43;;;;;;;7.22;1.75;;;8.60;99.90;;;;;;5071926;28;20140;-71
2022/05/04 06:50:10;;;;;;;6.68;1.70;;;8.70;99.90;;;;;;5068350;28;20107;-71
2022/05/04 06:52:37;;;;;;;9.38;1.67;;;8.80;99.90;;;;;;5051536;28;20107;-72
2022/05/04 06:55:04;;;;;;;5.50;1.73;;;8.90;99.90;;;;;;5070607;28;20483;-72
2022/05/04 06:57:30;;;;;;;8.98;1.83;;;8.90;99.90;;;;;;5072382;28;20052;-72
2022/05/04 06:59:58;;;;;;;9.45;1.85;;;9.30;99.90;;;;;;5072576;28;20048;-72
2022/05/04 07:02:24;;;;;;;8.55;1.60;;;9.00;99.90;;;;;;5072310;28;20036;-72
2022/05/04 07:04:49;;;;;;;9.30;1.80;;;9.20;99.90;;;;;;5070487;28;20136;-74
2022/05/04 07:07:15;;;;;;;7.45;1.80;;;9.30;99.90;;;;;;5072189;28;20128;-72
2022/05/04 07:09:41;;;;;;;9.98;1.73;;;9.30;99.90;;;;;;5071712;28;20492;-72
2022/05/04 07:12:07;;;;;;;8.18;1.50;;;9.40;99.90;;;;;;5070834;28;20052;-72
2022/05/04 07:14:33;;;;;;;6.32;1.55;;;9.40;99.90;;;;;;5070599;28;20508;-71
2022/05/04 07:16:58;;;;;;;9.30;1.80;;;9.50;99.90;;;;;;5070070;28;20036;-72
2022/05/04 07:19:24;;;;;;;5.50;1.60;;;9.50;99.90;;;;;;5071665;28;20446;-79
2022/05/04 07:21:50;;;;;;;13.45;1.88;;;9.60;99.90;;;;;;5070630;28;20032;-72
2022/05/04 07:24:16;;;;;;;7.35;1.70;;;9.60;99.90;;;;;;5071761;28;20132;-72
2022/05/04 07:26:42;;;;;;;8.27;1.70;;;9.70;99.90;;;;;;5071329;28;20360;-72
2022/05/04 07:29:08;;;;;;;7.75;2.22;;;9.80;99.90;;;;;;5071787;28;20060;-73
2022/05/04 07:31:34;;;;;;;9.70;1.92;;;9.80;99.90;;;;;;5071715;28;20148;-72
2022/05/04 07:33:59;;;;;;;9.18;1.48;;;9.90;99.90;;;;;;5070145;28;20045;-73
2022/05/04 07:36:25;;;;;;;8.40;2.08;;;10.00;99.90;;;;;;5071365;28;20067;-71
2022/05/04 07:38:51;;;;;;;7.60;1.38;;;10.10;99.90;;;;;;5060547;28;20056;-72
2022/05/04 07:44:00;;;;;;;10.88;1.63;;;10.20;99.90;;;;;;5049882;28;20053;-70
2022/05/04 07:46:29;;;;;;;10.43;1.75;;;10.30;99.90;;;;;;5049893;28;20064;-72
2022/05/04 07:48:55;;;;;;;11.75;1.83;;;10.30;99.90;;;;;;5062534;28;20059;-73
2022/05/04 07:51:24;;;;;;;9.30;1.45;;;10.30;99.90;;;;;;5069802;28;20065;-73
2022/05/04 07:53:49;;;;;;;9.48;1.58;;;10.40;99.90;;;;;;5071137;28;20044;-73
2022/05/04 07:56:15;;;;;;;10.50;1.77;;;10.50;99.90;;;;;;5070918;28;20067;-72
2022/05/04 07:58:41;;;;;;;9.90;1.42;;;10.60;99.90;;;;;;5069946;28;20067;-74
2022/05/04 08:06:35;;;;;;;10.23;1.75;;;10.90;99.90;;;;;;5069449;28;20519;-73
2022/05/04 08:09:00;;;;;;;9.55;1.48;;;10.60;99.90;;;;;;5070554;28;20049;-72
2022/05/04 08:11:26;;;;;;;18.70;1.80;;;10.70;99.90;;;;;;5069318;28;20094;-73
2022/05/04 08:13:51;;;;;;;9.88;2.20;;;10.70;99.90;;;;;;5070714;28;20093;-73
2022/05/04 08:16:18;;;;;;;11.05;2.20;;;11.00;99.90;;;;;;5070933;28;20040;-73
2022/05/04 08:18:44;;;;;;;8.55;1.50;;;10.60;99.90;;;;;;5071018;28;20052;-73
2022/05/04 08:21:10;;;;;;;10.00;1.80;;;10.70;99.90;;;;;;5070275;28;20141;-73
2022/05/04 08:23:36;;;;;;;7.68;1.73;;;10.90;99.90;;;;;;5069367;28;20052;-73
2022/05/04 08:26:02;;;;;;;6.20;1.58;;;11.00;99.90;;;;;;5070583;28;20037;-72
2022/05/04 08:28:29;;;;;;;9.35;2.03;;;11.10;99.90;;;;;;5070167;28;20428;-72
2022/05/04 08:30:54;;;;;;;11.55;1.83;;;11.10;99.90;;;;;;5069434;28;20765;-73
2022/05/04 08:33:20;;;;;;;8.77;2.05;;;11.10;99.90;;;;;;5070838;28;20044;-72
2022/05/04 08:35:46;;;;;;;8.43;1.73;;;11.10;99.90;;;;;;5070484;28;20044;-72
2022/05/04 08:38:12;;;;;;;11.05;2.10;;;11.10;99.90;;;;;;5068691;28;20048;-72
2022/05/04 08:40:38;;;;;;;9.50;1.77;;;11.10;99.90;;;;;;5070131;28;20139;-72
2022/05/04 08:43:07;;;;;;;12.70;1.92;;;11.00;99.90;;;;;;5068911;28;20055;-72
2022/05/04 08:45:38;;;;;;;8.50;1.67;;;11.10;99.90;;;;;;5070088;28;20036;-72
2022/05/04 08:48:05;;;;;;;14.38;1.83;;;11.60;99.90;;;;;;5050409;28;20049;-72
2022/05/04 08:50:32;;;;;;;10.30;1.70;;;11.30;99.90;;;;;;5050450;28;20124;-71
2022/05/04 08:53:00;;;;;;;11.43;1.63;;;11.50;99.90;;;;;;5050321;28;20542;-72
2022/05/04 08:55:26;;;;;;;9.15;1.77;;;11.30;99.90;;;;;;5049277;28;20047;-73
2022/05/04 08:57:54;;;;;;;13.15;1.90;;;11.20;99.90;;;;;;5064706;28;20052;-73
2022/05/04 09:00:20;;;;;;;5.13;1.55;;;11.20;99.90;;;;;;5070574;28;20424;-73
2022/05/04 09:02:46;;;;;;;8.15;2.05;;;11.40;99.90;;;;;;5070798;28;20083;-73
2022/05/04 09:05:20;;;;;;;8.23;1.58;;;11.40;99.90;;;;;;5069241;28;20044;-72
2022/05/04 09:07:51;;;;;;;14.88;1.80;;;11.50;99.90;;;;;;5070007;28;20041;-72
2022/05/04 09:10:19;;;;;;;12.18;1.83;;;12.00;99.90;;;;;;5072597;28;20044;-73
2022/05/04 09:12:46;;;;;;;6.68;1.67;;;11.50;99.90;;;;;;5072855;28;20060;-73
2022/05/04 09:15:25;;;;;;;9.05;1.95;;;11.50;99.90;;;;;;5074819;28;20458;-72
2022/05/04 09:18:07;;;;;;;10.70;1.70;;;11.50;99.90;;;;;;5072366;28;20067;-72
2022/05/04 09:20:57;;;;;;;7.13;1.48;;;11.60;99.90;;;;;;5073118;28;20044;-74
2022/05/04 09:23:30;;;;;;;8.50;2.00;;;11.80;99.90;;;;;;5055805;28;20449;-73
2022/05/04 09:26:02;;;;;;;14.00;2.33;;;11.90;99.90;;;;;;5074213;28;20044;-71
2022/05/04 09:28:29;;;;;;;10.98;1.83;;;12.00;99.90;;;;;;5073478;28;20456;-73
2022/05/04 09:30:56;;;;;;;5.75;1.45;;;12.10;99.90;;;;;;5072766;28;20089;-73
2022/05/04 09:33:26;;;;;;;12.23;2.00;;;12.50;99.90;;;;;;5072985;28;20037;-74
2022/05/04 09:35:52;;;;;;;6.65;1.67;;;12.70;99.90;;;;;;5072700;28;20040;-74
2022/05/04 09:46:42;;;;;;;10.95;1.60;;;12.70;99.90;;;;;;5073488;28;20406;-73
2022/05/04 09:49:16;;;;;;;8.55;1.58;;;12.60;99.90;;;;;;5072055;28;20052;-73
2022/05/04 09:51:52;;;;;;;9.03;1.90;;;12.70;99.90;;;;;;5054429;28;20396;-72
2022/05/04 09:54:27;;;;;;;9.50;2.00;;;12.70;99.90;;;;;;5057893;28;20048;-75
2022/05/04 09:57:00;;;;;;;11.02;2.40;;;12.60;99.90;;;;;;5071677;28;20588;-71
2022/05/04 09:59:30;;;;;;;10.73;1.80;;;12.70;99.90;;;;;;5065498;28;20045;-73
2022/05/04 10:01:59;;;;;;;11.10;1.85;;;12.70;99.90;;;;;;5053754;28;20049;-73
2022/05/04 10:04:25;;;;;;;8.60;1.98;;;13.00;99.90;;;;;;5053614;28;20045;-74
2022/05/04 10:06:52;;;;;;;8.77;1.88;;;13.30;99.90;;;;;;5053730;28;20132;-74
2022/05/04 10:09:19;;;;;;;7.60;1.88;;;13.40;99.90;;;;;;5053307;28;20131;-74
2022/05/04 10:11:45;;;;;;;9.57;1.90;;;13.50;99.90;;;;;;5067532;28;20048;-75
2022/05/04 10:14:15;;;;;;;9.32;2.15;;;13.60;99.90;;;;;;5073057;28;20048;-74
2022/05/04 10:16:40;;;;;;;12.00;2.00;;;13.50;99.90;;;;;;5071894;28;20625;-74
2022/05/04 10:19:11;;;;;;;9.90;1.50;;;13.70;99.90;;;;;;5073512;28;20101;-74
2022/05/04 10:21:39;;;;;;;11.30;2.00;;;13.50;99.90;;;;;;5069709;28;20048;-72
2022/05/04 10:24:07;;;;;;;8.05;1.67;;;14.10;99.90;;;;;;5071680;28;20514;-74
2022/05/04 10:26:38;;;;;;;11.27;1.88;;;14.20;99.70;;;;;;5071900;28;20124;-73
2022/05/04 10:32:26;;;;;;;11.30;1.77;;;14.70;99.40;;;;;;5072586;28;20053;-74
2022/05/04 10:35:13;;;;;;;7.93;1.65;;;14.90;99.00;;;;;;5073144;28;20048;-73
2022/05/04 10:38:18;;;;;;;7.15;1.48;;;14.90;97.60;;;;;;5072663;28;20080;-74
2022/05/04 10:40:53;;;;;;;9.27;1.60;;;15.30;97.20;;;;;;4974038;28;20066;-73
2022/05/04 10:43:37;;;;;;;6.03;1.60;;;15.60;97.90;;;;;;4990573;28;20050;-75
2022/05/04 10:46:13;;;;;;;11.20;2.08;;;15.70;98.80;;;;;;4974814;28;20836;-74
2022/05/04 10:49:05;;;;;;;8.45;1.98;;;15.80;98.10;;;;;;4974925;28;20393;-74
2022/05/04 10:51:35;;;;;;;12.18;2.00;;;15.70;98.10;;;;;;4972749;28;20046;-74
2022/05/04 10:54:17;;;;;;;5.72;1.50;;;15.90;98.60;;;;;;4990670;28;20043;-75
2022/05/04 10:56:48;;;;;;;15.07;1.90;;;16.10;98.00;;;;;;4958641;28;20078;-75
2022/05/04 10:59:34;;;;;;;10.20;1.88;;;16.00;96.30;;;;;;4977791;28;20122;-76
2022/05/04 11:02:05;;;;;;;8.48;1.83;;;16.00;97.20;;;;;;4990325;28;20501;-75
2022/05/04 11:04:31;;;;;;;9.48;1.67;;;16.30;97.30;;;;;;4958394;28;20428;-75
2022/05/04 11:07:06;;;;;;;5.60;1.83;;;16.60;96.50;;;;;;4990841;28;20054;-74
2022/05/04 11:09:51;;;;;;;7.13;1.70;;;16.30;95.70;;;;;;4990755;28;20065;-75
2022/05/04 11:12:19;;;;;;;5.43;1.83;;;16.30;95.10;;;;;;4972803;28;20164;-75
2022/05/04 11:14:44;;;;;;;6.25;1.88;;;16.20;95.60;;;;;;4989785;28;20520;-75
2022/05/04 11:17:14;;;;;;;11.32;2.03;;;16.30;95.80;;;;;;5042245;28;20100;-75
2022/05/04 11:19:45;;;;;;;8.05;2.35;;;16.20;94.80;;;;;;5051004;28;20135;-75
2022/05/04 11:22:11;;;;;;;7.45;1.75;;;16.30;94.80;;;;;;5056651;28;20040;-75
2022/05/04 11:24:37;;;;;;;11.38;2.33;;;16.60;94.60;;;;;;5071937;28;20063;-76
2022/05/04 11:27:04;;;;;;;10.35;2.22;;;16.70;95.00;;;;;;5071707;28;20036;-73
2022/05/04 11:29:30;;;;;;;14.68;2.78;;;17.00;92.70;;;;;;5071610;28;20102;-74
2022/05/04 11:32:04;;;;;;;11.48;2.13;;;17.00;94.70;;;;;;5072063;28;20102;-72
2022/05/04 11:34:35;;;;;;;8.68;2.08;;;17.10;94.20;;;;;;5070972;28;20045;-74
2022/05/04 11:37:09;;;;;;;9.68;2.28;;;17.00;92.60;;;;;;5071431;28;20356;-74
2022/05/04 11:39:36;;;;;;;8.30;2.05;;;16.80;93.70;;;;;;5052909;28;20060;-75
2022/05/04 11:42:04;;;;;;;8.85;1.98;;;17.10;94.40;;;;;;5070219;28;20082;-73
2022/05/04 11:44:30;;;;;;;10.00;2.30;;;16.80;93.80;;;;;;5053309;28;20132;-76
2022/05/04 11:46:58;;;;;;;7.35;2.03;;;17.20;94.60;;;;;;5070865;28;20071;-75
2022/05/04 11:49:26;;;;;;;10.35;2.40;;;17.50;94.40;;;;;;5071663;28;20049;-76
2022/05/04 11:51:53;;;;;;;8.30;1.98;;;17.40;94.80;;;;;;5071381;28;20526;-79
2022/05/04 11:54:19;;;;;;;9.52;2.08;;;17.80;95.40;;;;;;5070147;28;20044;-76
2022/05/04 11:56:45;;;;;;;15.32;2.72;;;18.00;93.70;;;;;;5069543;28;20052;-77
2022/05/04 11:59:11;;;;;;;8.38;2.22;;;18.20;93.20;;;;;;5069865;28;20123;-77
2022/05/04 12:01:38;;;;;;;10.13;2.28;;;18.40;92.00;;;;;;5070917;28;20418;-75
2022/05/04 12:04:05;;;;;;;9.73;1.85;;;18.60;92.30;;;;;;5069910;28;20056;-75
2022/05/04 12:06:32;;;;;;;7.80;1.83;;;18.80;92.40;;;;;;5069909;28;20072;-76
2022/05/04 12:08:59;;;;;;;8.50;2.20;;;19.00;91.50;;;;;;5070779;28;20044;-77
2022/05/04 12:11:25;;;;;;;7.70;2.22;;;19.30;90.50;;;;;;5070978;28;20040;-76
2022/05/04 12:13:52;;;;;;;11.05;1.95;;;19.30;90.50;;;;;;5070885;28;20051;-76
2022/05/04 12:16:18;;;;;;;6.82;2.20;;;19.20;90.80;;;;;;5068114;28;20064;-76
2022/05/04 12:18:47;;;;;;;7.68;2.08;;;19.40;90.00;;;;;;5070950;28;20412;-75
2022/05/04 12:21:16;;;;;;;6.53;2.03;;;19.20;83.90;;;;;;5070713;28;20110;-73
2022/05/04 12:23:52;;;;;;;6.47;2.10;;;19.10;82.60;;;;;;5069562;28;20055;-74
2022/05/04 12:26:21;;;;;;;8.98;2.15;;;19.20;86.60;;;;;;5069481;28;20495;-73
2022/05/04 12:34:19;;;;;;;7.68;2.25;;;19.10;81.30;;;;;;5049128;28;20136;-73
2022/05/04 12:36:45;;;;;;;6.47;1.90;;;19.00;81.70;;;;;;5050507;28;20132;-74
2022/05/04 12:39:11;;;;;;;9.25;2.15;;;18.80;84.80;;;;;;5050335;28;20052;-76
2022/05/04 12:41:37;;;;;;;7.78;1.77;;;19.00;87.40;;;;;;5050505;28;20041;-77
2022/05/04 12:44:05;;;;;;;10.20;2.10;;;19.40;87.10;;;;;;5050217;28;20412;-75
2022/05/04 12:46:30;;;;;;;8.90;2.00;;;19.40;85.50;;;;;;5048796;28;20049;-75
2022/05/04 12:48:56;;;;;;;8.82;2.33;;;19.70;83.80;;;;;;5049277;28;20060;-79
2022/05/04 12:51:24;;;;;;;8.25;2.10;;;19.30;81.50;;;;;;5050080;28;20052;-78
2022/05/04 12:53:51;;;;;;;7.80;2.10;;;19.40;82.80;;;;;;5048909;28;20045;-77
2022/05/04 12:59:02;;;;;;;;;;;19.60;83.30;;;;;;5050468;28;20560;-79
2022/05/04 13:01:30;;;;;;;8.43;2.00;;;19.50;79.10;;;;;;5050045;28;20015;-77
2022/05/04 13:03:56;;;;;;;7.13;2.10;;;19.70;82.00;;;;;;5050240;28;20056;-79
2022/05/04 13:06:22;;;;;;;8.07;2.20;;;19.80;82.60;;;;;;5050232;28;20045;-79
2022/05/04 13:08:48;;;;;;;10.75;2.83;;;20.00;81.30;;;;;;5048820;28;20132;-77
2022/05/04 13:11:15;;;;;;;6.18;1.80;;;19.90;80.20;;;;;;5050184;28;20503;-77
2022/05/04 13:13:41;;;;;;;11.95;3.00;;;19.90;78.90;;;;;;5048859;28;20059;-76
2022/05/04 13:16:07;;;;;;;9.43;2.22;;;20.40;81.80;;;;;;5049223;28;20116;-77
2022/05/04 13:18:33;;;;;;;11.95;2.38;;;20.60;81.80;;;;;;5049778;28;20048;-78
2022/05/04 13:20:59;;;;;;;6.00;2.05;;;20.60;78.90;;;;;;5050235;28;20560;-77
2022/05/04 13:23:25;;;;;;;9.02;2.25;;;20.50;78.30;;;;;;5048749;28;20053;-78
2022/05/04 13:25:50;;;;;;;8.18;2.25;;;20.60;78.30;;;;;;5048573;28;20132;-75
2022/05/04 13:28:16;;;;;;;9.02;2.20;;;20.30;74.20;;;;;;5048677;28;20132;-76
2022/05/04 13:30:42;;;;;;;9.52;2.30;;;20.00;78.30;;;;;;5049942;28;20076;-76
2022/05/04 13:33:08;;;;;;;8.10;2.53;;;19.80;76.10;;;;;;5049573;28;20098;-75